Briefing drone pour La grand-croix

Rechercher une autre localisation

Conditions de vol :


Nous sommes le : Mardi 30 novembre 2021
Il est 18:12 UTC (19:12 LT)

Lever de soleil : 06:34 UTC (07:34 LT)
Coucher de soleil : 16:26 UTC (17:26 LT)

Météo

L'essentiel des conditions de vol

VIGILANCE MÉTÉO FRANCE - Loire (42)
Pas de vigilances particulieres
METAR de LFMH
LFMH 301800Z AUTO 17004KT CAVOK 04/M01 Q1022

Date d'émission: 30/11/2021
Heure d'émission: 18:00 UTC
Vent: 170° pour 4 KT (7 km/h)
Visibilité horizontale: > 10 km
Plafond : Plafond et visibilité OK (CAVOK)
Température: 4 °C
Point de rosée: -1 °C
Humidité: 70%
Pression (QNH): 1022 hPa
TAF de LFMH
LFMH 161901Z 1619/1712 CNL

Conditions prévues :

Heure d'émission : Bulletin éffectué le 16 à 19:00 UTC
Prévision : Valide du 16 a 19:00 UTC au 17 a 12:00 UTC
Nuages : à 0ft (0 m)
WEBCAM POUR LA GRAND-CROIX

Réglementation

Voler en sécurité

CARTES AERONAUTIQUE 1/500.000
CARTES VAC (LFMH)
SUP AIP




Chargement des AIP...
NOTAM (LA GRAND-CROIX + Terrain à proximité / FIR )




Chargement des NOTAMS...
CONTACT PREFECTURE 42


Avertissement : Les données mises à disposition sont indicatives. Oxygène Drone ne pourra être tenu responsable de dégâts causés aux biens et aux personnes.